Map

Track Data

SID SEASON NUMBER BASIN SUBBASIN NAME ISO_TIME NATURE LAT LON WMO_WIND WMO_PRES WMO_AGENCY TRACK_TYPE DIST2LAND LANDFALL IFLAG USA_AGENCY USA_ATCF_ID USA_LAT USA_LON USA_RECORD USA_STATUS USA_WIND USA_PRES USA_SSHS USA_R34_NE USA_R34_SE USA_R34_SW USA_R34_NW USA_R50_NE USA_R50_SE USA_R50_SW USA_R50_NW USA_R64_NE USA_R64_SE USA_R64_SW USA_R64_NW USA_POCI USA_ROCI USA_RMW USA_EYE TOKYO_LAT TOKYO_LON TOKYO_GRADE TOKYO_WIND TOKYO_PRES TOKYO_R50_DIR TOKYO_R50_LONG TOKYO_R50_SHORT TOKYO_R30_DIR TOKYO_R30_LONG TOKYO_R30_SHORT TOKYO_LAND CMA_LAT CMA_LON CMA_CAT CMA_WIND CMA_PRES HKO_LAT HKO_LON HKO_CAT HKO_WIND HKO_PRES NEWDELHI_LAT NEWDELHI_LON NEWDELHI_GRADE NEWDELHI_WIND NEWDELHI_PRES NEWDELHI_CI NEWDELHI_DP NEWDELHI_POCI REUNION_LAT REUNION_LON REUNION_TYPE REUNION_WIND REUNION_PRES REUNION_TNUM REUNION_CI REUNION_RMW REUNION_R34_NE REUNION_R34_SE REUNION_R34_SW REUNION_R34_NW REUNION_R50_NE REUNION_R50_SE REUNION_R50_SW REUNION_R50_NW REUNION_R64_NE REUNION_R64_SE REUNION_R64_SW REUNION_R64_NW BOM_LAT BOM_LON BOM_TYPE BOM_WIND BOM_PRES BOM_TNUM BOM_CI BOM_RMW BOM_R34_NE BOM_R34_SE BOM_R34_SW BOM_R34_NW BOM_R50_NE BOM_R50_SE BOM_R50_SW BOM_R50_NW BOM_R64_NE BOM_R64_SE BOM_R64_SW BOM_R64_NW BOM_ROCI BOM_POCI BOM_EYE BOM_POS_METHOD BOM_PRES_METHOD NADI_LAT NADI_LON NADI_CAT NADI_WIND NADI_PRES WELLINGTON_LAT WELLINGTON_LON WELLINGTON_WIND WELLINGTON_PRES DS824_LAT DS824_LON DS824_STAGE DS824_WIND DS824_PRES TD9636_LAT TD9636_LON TD9636_STAGE TD9636_WIND TD9636_PRES TD9635_LAT TD9635_LON TD9635_WIND TD9635_PRES TD9635_ROCI NEUMANN_LAT NEUMANN_LON NEUMANN_CLASS NEUMANN_WIND NEUMANN_PRES MLC_LAT MLC_LON MLC_CLASS MLC_WIND MLC_PRES USA_GUST BOM_GUST BOM_GUST_PER REUNION_GUST REUNION_GUST_PER USA_SEAHGT USA_SEARAD_NE USA_SEARAD_SE USA_SEARAD_SW USA_SEARAD_NW STORM_SPEED STORM_DIR
1928066S09060 1928 17 SI MM NOT_NAMED 1928-03-06 06:00:00 NR -8.60000 59.6000 reunion main 1168 1168 _____O________ -1 -8.60000 59.6000 99 9.90000 2 71
1928066S09060 1928 17 SI MM NOT_NAMED 1928-03-06 09:00:00 NR -8.57058 59.6847 main 1178 1178 _____P________ -1 -8.57058 59.6847 99 2 72
1928066S09060 1928 17 SI MM NOT_NAMED 1928-03-06 12:00:00 NR -8.54872 59.7529 main 1193 1193 _____P________ -1 -8.54872 59.7529 99 1 75
1928066S09060 1928 17 SI MM NOT_NAMED 1928-03-06 15:00:00 NR -8.54201 59.7883 main 1193 1188 _____P________ -1 -8.54201 59.7883 99 0 0
1928066S09060 1928 17 SI MM NOT_NAMED 1928-03-06 18:00:00 NR -8.55802 59.7747 main 1188 1178 _____P________ -1 -8.55802 59.7747 99 1 233
1928066S09060 1928 17 SI MM NOT_NAMED 1928-03-06 21:00:00 NR -8.60431 59.6955 main 1178 1154 _____P________ -1 -8.60431 59.6955 99 3 241
1928066S09060 1928 17 SI MM NOT_NAMED 1928-03-07 00:00:00 NR -8.68843 59.5345 main 1154 1129 _____P________ -1 -8.68843 59.5345 99 5 243
1928066S09060 1928 17 SI MM NOT_NAMED 1928-03-07 03:00:00 NR -8.81786 59.2749 main 1129 1080 _____P________ -1 -8.81786 59.2749 99 7 244
1928066S09060 1928 17 SI MM NOT_NAMED 1928-03-07 06:00:00 NR -9.00000 58.9000 reunion main 1080 1020 _____O________ -1 -9.00000 58.9000 99 9.90000 10 244
1928066S09060 1928 17 SI MM NOT_NAMED 1928-03-07 09:00:00 NR -9.23952 58.4010 main 1020 946 _____P________ -1 -9.23952 58.4010 99 12 244
1928066S09060 1928 17 SI MM NOT_NAMED 1928-03-07 12:00:00 NR -9.53058 57.8016 main 946 873 _____P________ -1 -9.53058 57.8016 99 14 243
1928066S09060 1928 17 SI MM NOT_NAMED 1928-03-07 15:00:00 NR -9.86478 57.1337 main 858 784 _____P________ -1 -9.86478 57.1337 99 15 243
1928066S09060 1928 17 SI MM NOT_NAMED 1928-03-07 18:00:00 NR -10.2338 56.4295 main 774 696 _____P________ -1 -10.2338 56.4295 99 16 241
1928066S09060 1928 17 SI MM NOT_NAMED 1928-03-07 21:00:00 NR -10.6295 55.7213 main 686 608 _____P________ -1 -10.6295 55.7213 99 16 239
1928066S09060 1928 17 SI MM NOT_NAMED 1928-03-08 00:00:00 NR -11.0441 55.0419 main 598 531 _____P________ -1 -11.0441 55.0419 99 15 237
1928066S09060 1928 17 SI MM NOT_NAMED 1928-03-08 03:00:00 NR -11.4700 54.4238 main 517 451 _____P________ -1 -11.4700 54.4238 99 14 233
1928066S09060 1928 17 SI MM NOT_NAMED 1928-03-08 06:00:00 NR -11.9000 53.9000 reunion main 451 409 _____O________ -1 -11.9000 53.9000 99 9.90000 12 226
1928066S09060 1928 17 SI MM NOT_NAMED 1928-03-08 09:00:00 NR -12.2863 53.5520 main 409 366 _____P________ -1 -12.2863 53.5520 99 10 218
1928066S09060 1928 17 SI MM NOT_NAMED 1928-03-08 12:00:00 NR -12.6822 53.2844 main 366 333 _____P________ -1 -12.6822 53.2844 99 9 209
1928066S09060 1928 17 SI MM NOT_NAMED 1928-03-08 15:00:00 NR -13.0885 53.0888 main 333 315 _____P________ -1 -13.0885 53.0888 99 9 201
1928066S09060 1928 17 SI MM NOT_NAMED 1928-03-08 18:00:00 NR -13.5059 52.9569 main 315 296 _____P________ -1 -13.5059 52.9569 99 9 193
1928066S09060 1928 17 SI MM NOT_NAMED 1928-03-08 21:00:00 NR -13.9352 52.8804 main 296 273 _____P________ -1 -13.9352 52.8804 99 9 187
1928066S09060 1928 17 SI MM NOT_NAMED 1928-03-09 00:00:00 NR -14.3770 52.8509 main 273 256 _____P________ -1 -14.3770 52.8509 99 9 0
1928066S09060 1928 17 SI MM NOT_NAMED 1928-03-09 03:00:00 NR -14.8317 52.8603 main 261 257 _____P________ -1 -14.8317 52.8603 99 9 178
1928066S09060 1928 17 SI MM NOT_NAMED 1928-03-09 06:00:00 NR -15.3000 52.9000 reunion main 257 257 _____O________ -1 -15.3000 52.9000 99 9.90000 10 178
1928066S09060 1928 17 SI MM NOT_NAMED 1928-03-09 09:00:00 NR -15.7930 52.8971 main 261 261 _____P________ -1 -15.7930 52.8971 99 10 178
1928066S09060 1928 17 SI MM NOT_NAMED 1928-03-09 12:00:00 NR -16.3024 52.9313 main 275 275 _____P________ -1 -16.3024 52.9313 99 10 174
1928066S09060 1928 17 SI MM NOT_NAMED 1928-03-09 15:00:00 NR -16.8229 53.0006 main 308 308 _____P________ -1 -16.8229 53.0006 99 11 171
1928066S09060 1928 17 SI MM NOT_NAMED 1928-03-09 18:00:00 NR -17.3490 53.1028 main 341 341 _____P________ -1 -17.3490 53.1028 99 11 168
1928066S09060 1928 17 SI MM NOT_NAMED 1928-03-09 21:00:00 NR -17.8753 53.2360 main 381 352 _____P________ -1 -17.8753 53.2360 99 11 165
1928066S09060 1928 17 SI MM NOT_NAMED 1928-03-10 00:00:00 NR -18.3961 53.3980 main 352 294 _____P________ -1 -18.3961 53.3980 99 11 162
1928066S09060 1928 17 SI MM NOT_NAMED 1928-03-10 03:00:00 NR -18.9062 53.5867 main 294 237 _____P________ -1 -18.9062 53.5867 99 11 159
1928066S09060 1928 17 SI MM NOT_NAMED 1928-03-10 06:00:00 NR -19.4000 53.8000 reunion main 237 190 _____O________ -1 -19.4000 53.8000 99 9.90000 11 158
1928066S09060 1928 17 SI MM NOT_NAMED 1928-03-10 09:00:00 NR -19.8727 54.0088 main 182 137 _____P________ -1 -19.8727 54.0088 99 10 156
1928066S09060 1928 17 SI MM NOT_NAMED 1928-03-10 12:00:00 NR -20.3324 54.2457 main 137 80 _____P________ -1 -20.3324 54.2457 99 10 153
1928066S09060 1928 17 SI MM NOT_NAMED 1928-03-10 15:00:00 NR -20.7789 54.5079 main 80 42 _____P________ -1 -20.7789 54.5079 99 10 150
1928066S09060 1928 17 SI MM NOT_NAMED 1928-03-10 18:00:00 NR -21.2118 54.7926 main 42 33 _____P________ -1 -21.2118 54.7926 99 10 147
1928066S09060 1928 17 SI MM NOT_NAMED 1928-03-10 21:00:00 NR -21.6307 55.0970 main 39 39 _____P________ -1 -21.6307 55.0970 99 10 145
1928066S09060 1928 17 SI MM NOT_NAMED 1928-03-11 00:00:00 NR -22.0353 55.4183 main 70 70 _____P________ -1 -22.0353 55.4183 99 10 143
1928066S09060 1928 17 SI MM NOT_NAMED 1928-03-11 03:00:00 NR -22.4251 55.7536 main 113 113 _____P________ -1 -22.4251 55.7536 99 10 140
1928066S09060 1928 17 SI MM NOT_NAMED 1928-03-11 06:00:00 NR -22.8000 56.1000 reunion main 164 164 _____O________ -1 -22.8000 56.1000 99 9.90000 10 139
1928066S09060 1928 17 SI MM NOT_NAMED 1928-03-11 09:00:00 NR -23.1758 56.4540 main 221 221 _____P________ -1 -23.1758 56.4540 99 10 138
1928066S09060 1928 17 SI MM NOT_NAMED 1928-03-11 12:00:00 NR -23.5365 56.8240 main 265 265 _____P________ -1 -23.5365 56.8240 99 10 136
1928066S09060 1928 17 SI MM NOT_NAMED 1928-03-11 15:00:00 NR -23.8822 57.2051 main 324 324 _____P________ -1 -23.8822 57.2051 99 10 134
1928066S09060 1928 17 SI MM NOT_NAMED 1928-03-11 18:00:00 NR -24.2134 57.5922 main 372 372 _____P________ -1 -24.2134 57.5922 99 10 133
1928066S09060 1928 17 SI MM NOT_NAMED 1928-03-11 21:00:00 NR -24.5303 57.9804 main 422 422 _____P________ -1 -24.5303 57.9804 99 9 131
1928066S09060 1928 17 SI MM NOT_NAMED 1928-03-12 00:00:00 NR -24.8334 58.3645 main 473 473 _____P________ -1 -24.8334 58.3645 99 9 131
1928066S09060 1928 17 SI MM NOT_NAMED 1928-03-12 03:00:00 NR -25.1232 58.7395 main 517 517 _____P________ -1 -25.1232 58.7395 99 9 130
1928066S09060 1928 17 SI MM NOT_NAMED 1928-03-12 06:00:00 NR -25.4000 59.1000 reunion main 566 566 _____O________ -1 -25.4000 59.1000 99 9.90000 9 131
1928066S09060 1928 17 SI MM NOT_NAMED 1928-03-12 09:00:00 NR -25.6985 59.4644 main 609 609 _____P________ -1 -25.6985 59.4644 99 9 132
1928066S09060 1928 17 SI MM NOT_NAMED 1928-03-12 12:00:00 NR -25.9860 59.8202 main 651 651 _____P________ -1 -25.9860 59.8202 99 8 132
1928066S09060 1928 17 SI MM NOT_NAMED 1928-03-12 15:00:00 NR -26.2592 60.1626 main 696 696 _____P________ -1 -26.2592 60.1626 99 8 132
1928066S09060 1928 17 SI MM NOT_NAMED 1928-03-12 18:00:00 NR -26.5150 60.4867 main 728 728 _____P________ -1 -26.5150 60.4867 99 7 131
1928066S09060 1928 17 SI MM NOT_NAMED 1928-03-12 21:00:00 NR -26.7501 60.7876 main 771 771 _____P________ -1 -26.7501 60.7876 99 7 131
1928066S09060 1928 17 SI MM NOT_NAMED 1928-03-13 00:00:00 NR -26.9614 61.0601 main 804 804 _____P________ -1 -26.9614 61.0601 99 6 131
1928066S09060 1928 17 SI MM NOT_NAMED 1928-03-13 03:00:00 NR -27.1458 61.2993 main 823 823 _____P________ -1 -27.1458 61.2993 99 5 131
1928066S09060 1928 17 SI MM NOT_NAMED 1928-03-13 06:00:00 NR -27.3000 61.5000 reunion main 852 852 _____O________ -1 -27.3000 61.5000 99 9.90000 4 131
1928066S09060 1928 17 SI MM NOT_NAMED 1928-03-13 09:00:00 NR -27.4222 61.6588 main 871 871 _____P________ -1 -27.4222 61.6588 99 3 131
1928066S09060 1928 17 SI MM NOT_NAMED 1928-03-13 12:00:00 NR -27.5155 61.7792 main 885 885 _____P________ -1 -27.5155 61.7792 99 2 131
1928066S09060 1928 17 SI MM NOT_NAMED 1928-03-13 15:00:00 NR -27.5839 61.8667 main 900 900 _____P________ -1 -27.5839 61.8667 99 2 131
1928066S09060 1928 17 SI MM NOT_NAMED 1928-03-13 18:00:00 NR -27.6318 61.9265 main 900 900 _____P________ -1 -27.6318 61.9265 99 1 132
1928066S09060 1928 17 SI MM NOT_NAMED 1928-03-13 21:00:00 NR -27.6632 61.9643 main 915 915 _____P________ -1 -27.6632 61.9643 99 1 130
1928066S09060 1928 17 SI MM NOT_NAMED 1928-03-14 00:00:00 NR -27.6823 61.9854 main 915 915 _____P________ -1 -27.6823 61.9854 99 0 139
1928066S09060 1928 17 SI MM NOT_NAMED 1928-03-14 03:00:00 NR -27.6932 61.9955 main 915 915 _____P________ -1 -27.6932 61.9955 99 0 0
1928066S09060 1928 17 SI MM NOT_NAMED 1928-03-14 06:00:00 NR -27.7000 62.0000 reunion main 915 _____O________ -1 -27.7000 62.0000 99 9.90000 0 0

About IBTrACS Database

This database is a web-friendly format of International Best Track Archive for Climate Stewardship (IBTrACS), a global best track data archive curated by NOAA dating back to 1842.

Updated: 2021-12-01